createdAt,value
2018-08-13T00:02:48.791Z,54.55
2018-08-13T00:05:48.872Z,55.26
2018-08-13T00:08:48.733Z,55.69
2018-08-13T00:11:48.700Z,55.16
2018-08-13T00:14:48.633Z,55.56
2018-08-13T00:17:48.653Z,54.05
2018-08-13T00:20:48.558Z,53.75
2018-08-13T00:23:48.549Z,54.25
2018-08-13T00:26:48.533Z,54.35
2018-08-13T00:29:48.499Z,56.37
2018-08-13T00:32:48.436Z,56.90
2018-08-13T00:35:48.415Z,58.34
2018-08-13T00:38:48.372Z,57.35
2018-08-13T00:41:48.372Z,58.36
2018-08-13T00:44:48.304Z,58.87
2018-08-13T00:47:48.273Z,58.97
2018-08-13T00:50:48.319Z,59.57
2018-08-13T00:53:48.210Z,56.85
2018-08-13T00:56:48.173Z,57.60
2018-08-13T00:59:48.136Z,58.41
2018-08-13T01:02:48.112Z,57.30
2018-08-13T01:05:48.074Z,58.51
2018-08-13T01:08:48.029Z,57.53
2018-08-13T01:11:48.014Z,58.23
2018-08-13T01:14:48.000Z,58.01
2018-08-13T01:17:47.975Z,59.44
2018-08-13T01:20:47.891Z,59.44
2018-08-13T01:23:47.866Z,58.67
2018-08-13T01:26:49.424Z,59.34
2018-08-13T01:29:47.818Z,59.34
2018-08-13T01:32:47.764Z,58.03
2018-08-13T01:35:47.832Z,60.25
2018-08-13T01:38:47.710Z,60.42
2018-08-13T01:41:48.448Z,59.22
2018-08-13T01:44:47.636Z,59.11
2018-08-13T01:47:47.616Z,57.90
2018-08-13T01:50:47.552Z,57.20
2018-08-13T01:53:47.569Z,58.18
2018-08-13T01:56:47.502Z,57.17
2018-08-13T01:59:47.518Z,56.87
2018-08-13T02:02:47.457Z,55.23
2018-08-13T02:05:47.436Z,55.13
2018-08-13T02:08:47.379Z,54.43
2018-08-13T02:11:47.392Z,55.51
2018-08-13T02:14:47.310Z,55.18
2018-08-13T02:17:47.305Z,55.46
2018-08-13T02:20:47.320Z,55.16
2018-08-13T02:23:47.221Z,54.43
2018-08-13T02:26:47.171Z,54.20
2018-08-13T02:29:47.138Z,54.20
2018-08-13T02:32:47.126Z,54.40
2018-08-13T02:35:47.113Z,54.70
2018-08-13T02:38:47.124Z,53.59
2018-08-13T02:41:47.019Z,54.88
2018-08-13T02:44:47.015Z,54.77
2018-08-13T02:47:47.037Z,53.17
2018-08-13T02:50:46.904Z,52.84
2018-08-13T02:53:46.900Z,51.39
2018-08-13T02:56:47.026Z,50.44
2018-08-13T02:59:46.841Z,49.44
2018-08-13T03:02:46.783Z,49.94
2018-08-13T03:05:46.771Z,52.42
2018-08-13T03:08:46.767Z,58.18
2018-08-13T03:11:48.617Z,59.13
2018-08-13T03:15:57.274Z,64.18
2018-08-13T03:18:57.028Z,67.55
2018-08-13T03:21:57.019Z,68.62
2018-08-13T03:24:56.997Z,70.46
2018-08-13T03:27:57.005Z,72.00
2018-08-13T03:30:57.358Z,74.35
2018-08-13T03:33:59.764Z,74.38
2018-08-13T03:36:56.689Z,75.99
2018-08-13T03:39:59.025Z,77.55
2018-08-13T03:42:56.759Z,75.83
2018-08-13T03:45:57.537Z,77.75
2018-08-13T03:48:56.822Z,77.17
2018-08-13T03:51:57.208Z,77.28
2018-08-13T03:54:56.548Z,78.05
2018-08-13T03:57:56.657Z,79.09
2018-08-13T04:00:56.497Z,75.93
2018-08-13T04:04:00.567Z,78.79
2018-08-13T04:08:44.844Z,81.45
2018-08-13T04:12:30.453Z,82.90
2018-08-13T04:15:30.199Z,84.51
2018-08-13T04:18:34.851Z,83.00
2018-08-13T04:23:02.825Z,85.62
2018-08-13T04:26:03.509Z,83.70
2018-08-13T04:29:04.773Z,84.51
2018-08-13T07:45:07.481Z,81.36
2018-08-13T07:48:07.376Z,79.32
2018-08-13T07:51:07.347Z,80.62
2018-08-13T07:54:07.280Z,80.76
2018-08-13T07:57:07.269Z,81.82
2018-08-13T08:00:07.330Z,78.68
2018-08-13T08:03:07.202Z,79.34
2018-08-13T08:06:07.218Z,77.74
2018-08-13T08:09:07.243Z,77.14
2018-08-13T08:12:07.099Z,78.70
2018-08-13T08:15:07.159Z,75.70
2018-08-13T08:18:07.033Z,75.73
2018-08-13T08:21:07.106Z,71.45
2018-08-13T08:24:07.020Z,68.37
2018-08-13T08:27:07.067Z,60.03
2018-08-13T08:30:07.048Z,60.24
2018-08-13T08:33:09.505Z,58.36
2018-08-13T08:36:06.871Z,58.46
2018-08-13T08:39:06.791Z,62.18
2018-08-13T08:42:06.784Z,62.47
2018-08-13T08:45:06.801Z,63.33
2018-08-13T08:48:06.719Z,58.61
2018-08-13T08:51:07.499Z,55.03
2018-08-13T08:54:06.694Z,53.85
2018-08-13T08:57:07.072Z,50.49
2018-08-13T09:00:06.640Z,51.35
2018-08-13T09:03:06.555Z,50.14
2018-08-13T09:06:06.580Z,50.93
2018-08-13T09:09:06.500Z,49.65
2018-08-13T09:12:06.962Z,48.08
2018-08-13T09:15:06.425Z,46.46
2018-08-13T09:18:06.382Z,50.02
2018-08-13T09:21:06.454Z,53.08
2018-08-13T09:24:06.335Z,51.57
2018-08-13T09:27:06.480Z,52.98
2018-08-13T09:30:06.353Z,54.29
2018-08-13T09:33:06.324Z,54.96
2018-08-13T09:36:06.231Z,51.32
2018-08-13T09:39:06.209Z,54.84
2018-08-13T09:42:06.197Z,58.22
2018-08-13T09:45:06.138Z,58.61
2018-08-13T09:48:06.179Z,58.54
2018-08-13T09:51:06.122Z,60.02
2018-08-13T09:54:06.024Z,56.40
2018-08-13T09:57:06.014Z,51.75
2018-08-13T10:00:05.968Z,55.13
2018-08-13T10:03:05.947Z,56.28
2018-08-13T10:06:05.945Z,56.15
2018-08-13T10:09:05.882Z,55.80
2018-08-13T10:12:05.947Z,55.78
2018-08-13T10:15:05.909Z,58.74
2018-08-13T10:18:05.846Z,57.35
2018-08-13T10:21:05.815Z,55.54
2018-08-13T10:24:05.719Z,58.47
2018-08-13T10:27:05.714Z,57.41
2018-08-13T10:30:05.693Z,56.30
2018-08-13T10:33:05.667Z,55.51
2018-08-13T10:36:05.619Z,54.14
2018-08-13T10:39:05.580Z,50.24
2018-08-13T10:42:05.533Z,50.81
2018-08-13T10:45:05.561Z,49.35
2018-08-13T10:48:05.485Z,52.34
2018-08-13T10:51:05.490Z,54.67
2018-08-13T10:54:05.415Z,55.71
2018-08-13T10:57:05.406Z,55.83
2018-08-13T11:00:05.422Z,58.03
2018-08-13T11:03:05.372Z,62.55
2018-08-13T11:06:05.277Z,83.49
2018-08-13T11:09:05.259Z,95.86
2018-08-13T11:12:05.223Z,98.93
2018-08-13T11:15:05.212Z,99.84
2018-08-13T11:18:05.156Z,99.59
2018-08-13T11:21:05.124Z,99.39
2018-08-13T11:24:05.086Z,99.34
2018-08-13T11:27:05.306Z,97.69
2018-08-13T11:30:05.016Z,96.94
2018-08-13T11:33:05.012Z,95.20
2018-08-13T11:36:04.948Z,95.71
2018-08-13T11:39:04.936Z,94.32
2018-08-13T11:42:04.886Z,90.83
2018-08-13T11:45:04.882Z,91.98
2018-08-13T11:48:04.824Z,91.51
2018-08-13T11:51:04.807Z,92.11
2018-08-13T11:54:04.798Z,91.96
2018-08-13T11:57:04.734Z,90.79
2018-08-13T12:00:04.696Z,91.89
2018-08-13T12:03:04.679Z,91.44
2018-08-13T12:06:04.628Z,90.79
2018-08-13T12:09:04.603Z,91.69
2018-08-13T12:12:04.564Z,92.66
2018-08-13T12:15:04.548Z,90.59
2018-08-13T12:18:04.527Z,90.66
2018-08-13T12:21:04.473Z,82.79
2018-08-13T12:24:04.455Z,78.99
2018-08-13T12:27:05.640Z,80.32
2018-08-13T12:30:04.375Z,77.92
2018-08-13T12:33:04.364Z,73.21
2018-08-13T12:36:04.309Z,73.28
2018-08-13T12:39:04.367Z,72.92
2018-08-13T12:42:04.260Z,72.25
2018-08-13T12:45:04.244Z,71.02
2018-08-13T12:48:04.195Z,70.45
2018-08-13T12:51:04.185Z,63.28
2018-08-13T12:54:04.135Z,62.12
2018-08-13T12:57:04.180Z,61.22
2018-08-13T13:00:04.080Z,63.18
2018-08-13T13:03:04.049Z,60.77
2018-08-13T13:06:04.029Z,58.56
2018-08-13T13:09:04.083Z,58.15
2018-08-13T13:12:03.968Z,59.62
2018-08-13T13:15:03.947Z,60.30
2018-08-13T13:18:03.902Z,56.54
2018-08-13T13:21:03.916Z,55.33
2018-08-13T13:24:03.848Z,62.32
2018-08-13T13:27:03.853Z,68.62
2018-08-13T13:30:03.775Z,84.21
2018-08-13T13:33:03.747Z,93.11
2018-08-13T13:36:03.710Z,94.01
2018-08-13T13:39:03.695Z,94.47
2018-08-13T13:42:03.651Z,95.13
2018-08-13T13:45:03.623Z,93.46
2018-08-13T13:48:03.568Z,94.27
2018-08-13T13:51:04.535Z,91.96
2018-08-13T13:54:03.502Z,91.77
2018-08-13T13:57:03.482Z,90.73
2018-08-13T14:00:03.444Z,89.22
2018-08-13T14:03:03.419Z,78.65
2018-08-13T14:06:03.382Z,74.57
2018-08-13T14:09:03.427Z,78.44
2018-08-13T14:12:03.319Z,82.63
2018-08-13T14:15:03.320Z,82.71
2018-08-13T14:18:03.246Z,82.89
2018-08-13T14:21:03.236Z,83.09
2018-08-13T14:24:03.176Z,84.53
2018-08-13T14:27:03.161Z,83.81
2018-08-13T14:30:03.107Z,84.59
2018-08-13T14:33:03.107Z,86.65
2018-08-13T14:36:03.057Z,93.51
2018-08-13T14:39:03.031Z,96.06
2018-08-13T14:42:02.971Z,93.33
2018-08-13T14:45:02.959Z,87.38
2018-08-13T14:48:02.907Z,87.22
2018-08-13T14:51:02.920Z,87.05
2018-08-13T14:54:02.847Z,82.77
2018-08-13T14:57:02.829Z,80.79
2018-08-13T15:00:02.777Z,79.32
2018-08-13T15:03:02.799Z,82.89
2018-08-13T15:06:02.753Z,85.13
2018-08-13T15:09:02.782Z,87.10
2018-08-13T15:12:02.684Z,89.42
2018-08-13T15:15:02.663Z,87.24
2018-08-13T15:18:02.604Z,88.15
2018-08-13T15:21:02.592Z,86.74
2018-08-13T15:24:02.519Z,86.04
2018-08-13T15:27:02.580Z,85.70
2018-08-13T15:30:02.455Z,87.26
2018-08-13T15:33:02.458Z,87.12
2018-08-13T15:36:02.403Z,82.70
2018-08-13T15:39:02.388Z,79.98
2018-08-13T15:42:02.346Z,76.83
2018-08-13T15:45:02.298Z,73.95
2018-08-13T15:48:02.307Z,75.99
2018-08-13T15:51:02.243Z,69.49
2018-08-13T15:54:02.210Z,66.97
2018-08-13T15:57:02.179Z,67.00
2018-08-13T16:00:02.244Z,68.82
2018-08-13T16:03:02.235Z,71.56
2018-08-13T16:06:02.288Z,68.49
2018-08-13T16:09:02.376Z,66.24
2018-08-13T16:12:02.111Z,62.65
2018-08-13T16:15:02.162Z,65.64
2018-08-13T16:18:02.060Z,68.59
2018-08-13T16:21:02.006Z,71.46
2018-08-13T16:24:01.922Z,72.73
2018-08-13T16:27:01.875Z,72.56
2018-08-13T16:30:01.826Z,71.56
2018-08-13T16:33:01.788Z,71.70
2018-08-13T16:36:01.756Z,72.66
2018-08-13T16:39:01.750Z,72.90
2018-08-13T16:42:01.727Z,73.27
2018-08-13T16:45:01.653Z,70.50
2018-08-13T16:48:01.626Z,64.90
2018-08-13T16:51:01.592Z,67.16
2018-08-13T16:54:01.536Z,67.89
2018-08-13T16:57:01.513Z,69.86
2018-08-13T17:00:01.467Z,69.19
2018-08-13T17:03:01.461Z,72.00
2018-08-13T17:06:01.404Z,70.50
2018-08-13T17:09:01.415Z,69.49
2018-08-13T17:12:01.351Z,66.96
2018-08-13T17:15:01.320Z,65.50
2018-08-13T17:18:01.279Z,65.23
2018-08-13T17:21:01.280Z,64.84
2018-08-13T17:24:01.221Z,67.83
2018-08-13T17:27:01.201Z,67.79
2018-08-13T17:30:01.153Z,63.17
2018-08-13T17:33:01.156Z,60.82
2018-08-13T17:36:01.089Z,60.79
2018-08-13T17:39:01.079Z,67.52
2018-08-13T17:42:01.003Z,69.23
2018-08-13T17:45:00.998Z,70.19
2018-08-13T17:48:00.944Z,69.92
2018-08-13T17:51:00.934Z,71.66
2018-08-13T17:54:00.883Z,68.05
2018-08-13T17:57:00.873Z,64.40
2018-08-13T18:00:00.814Z,64.47
2018-08-13T18:03:01.021Z,64.07
2018-08-13T18:06:00.760Z,63.47
2018-08-13T18:09:00.734Z,65.43
2018-08-13T18:12:00.688Z,65.80
2018-08-13T18:15:00.658Z,68.29
2018-08-13T18:18:00.629Z,72.63
2018-08-13T18:21:00.592Z,74.37
2018-08-13T18:24:00.583Z,75.71
2018-08-13T18:27:00.555Z,76.25
2018-08-13T18:30:00.521Z,76.65
2018-08-13T18:33:01.514Z,77.29
2018-08-13T18:36:00.419Z,77.09
2018-08-13T18:39:00.419Z,77.50
2018-08-13T18:42:00.355Z,77.59
2018-08-13T18:45:00.339Z,78.84
2018-08-13T18:48:00.307Z,79.54
2018-08-13T18:51:00.253Z,78.64
2018-08-13T18:54:00.242Z,80.19
2018-08-13T18:57:00.204Z,80.69
2018-08-13T19:00:00.232Z,81.39
2018-08-13T19:03:00.133Z,81.49
2018-08-13T19:06:00.100Z,82.44
2018-08-13T19:09:00.064Z,82.24
2018-08-13T19:12:00.012Z,82.94
2018-08-13T19:15:00.030Z,83.25
2018-08-13T19:17:59.947Z,83.79
2018-08-13T19:20:59.927Z,84.69
2018-08-13T19:24:00.498Z,84.89
2018-08-13T19:26:59.881Z,85.60
2018-08-13T19:29:59.814Z,85.24
2018-08-13T19:32:59.787Z,86.04
2018-08-13T19:35:59.761Z,86.44
2018-08-13T19:38:59.754Z,85.44
2018-08-13T19:41:59.711Z,86.35
2018-08-13T19:44:59.679Z,85.68
2018-08-13T19:47:59.638Z,86.44
2018-08-13T19:50:59.585Z,87.19
2018-08-13T19:53:59.557Z,87.40
2018-08-13T19:56:59.516Z,87.90
2018-08-13T19:59:59.474Z,88.04
2018-08-13T20:02:59.462Z,88.90
2018-08-13T20:05:59.411Z,88.95
2018-08-13T20:08:59.390Z,89.41
2018-08-13T20:11:59.361Z,89.71
2018-08-13T20:14:59.338Z,89.15
2018-08-13T20:17:59.277Z,89.86
2018-08-13T20:20:59.276Z,90.77
2018-08-13T20:23:59.214Z,90.86
2018-08-13T20:26:59.204Z,91.41
2018-08-13T20:29:59.151Z,92.52
2018-08-13T20:32:59.142Z,92.62
2018-08-13T20:35:59.148Z,91.61
2018-08-13T20:38:59.071Z,92.22
2018-08-13T20:41:59.020Z,91.41
2018-08-13T20:44:59.477Z,92.22
2018-08-13T20:47:58.944Z,92.02
2018-08-13T20:50:58.950Z,92.02
2018-08-13T20:53:58.878Z,91.51
2018-08-13T20:56:58.858Z,91.11
2018-08-13T20:59:58.804Z,91.41
2018-08-13T21:02:58.803Z,91.41
2018-08-13T21:05:58.741Z,91.11
2018-08-13T21:08:58.752Z,90.81
2018-08-13T21:11:58.677Z,91.21
2018-08-13T21:14:58.674Z,91.21
2018-08-13T21:17:58.646Z,90.91
2018-08-13T21:20:58.598Z,91.31
2018-08-13T21:23:58.540Z,91.51
2018-08-13T21:26:58.695Z,90.81
2018-08-13T21:29:58.481Z,90.70
2018-08-13T21:32:58.451Z,91.51
2018-08-13T21:35:58.446Z,90.91
2018-08-13T21:38:58.387Z,91.51
2018-08-13T21:41:58.353Z,91.11
2018-08-13T21:44:58.319Z,91.66
2018-08-13T21:47:58.316Z,91.41
2018-08-13T21:50:58.265Z,91.51
2018-08-13T21:53:58.242Z,91.25
2018-08-13T21:56:58.194Z,91.61
2018-08-13T21:59:58.135Z,91.21
2018-08-13T22:02:58.151Z,91.31
2018-08-13T22:05:58.084Z,91.21
2018-08-13T22:08:58.078Z,90.86
2018-08-13T22:11:58.003Z,89.75
2018-08-13T22:14:58.023Z,89.45
2018-08-13T22:17:57.952Z,89.65
2018-08-13T22:20:57.934Z,89.45
2018-08-13T22:23:57.877Z,90.36
2018-08-13T22:26:57.862Z,89.71
2018-08-13T22:29:57.802Z,89.91
2018-08-13T22:32:57.804Z,89.21
2018-08-13T22:35:57.797Z,88.70
2018-08-13T22:38:57.723Z,89.41
2018-08-13T22:41:57.667Z,89.11
2018-08-13T22:44:57.656Z,90.62
2018-08-13T22:47:57.606Z,90.66
2018-08-13T22:50:57.581Z,90.82
2018-08-13T22:53:57.541Z,90.56
2018-08-13T22:56:57.508Z,91.37
2018-08-13T22:59:57.480Z,91.17
2018-08-13T23:02:57.443Z,90.97
2018-08-13T23:05:57.399Z,92.18
2018-08-13T23:08:57.428Z,91.27
2018-08-13T23:11:57.355Z,91.17
2018-08-13T23:14:57.321Z,91.37
2018-08-13T23:17:57.274Z,92.02
2018-08-13T23:20:57.244Z,91.77
2018-08-13T23:23:57.269Z,91.57
2018-08-13T23:26:57.375Z,92.82
2018-08-13T23:29:57.160Z,92.12
2018-08-13T23:32:57.130Z,92.72
2018-08-13T23:35:57.073Z,92.52
2018-08-13T23:38:57.073Z,91.71
2018-08-13T23:41:57.026Z,92.22
2018-08-13T23:44:56.982Z,91.11
2018-08-13T23:47:56.928Z,91.17
2018-08-13T23:50:57.031Z,90.46
2018-08-13T23:53:56.888Z,90.36
2018-08-13T23:56:56.853Z,89.65
2018-08-13T23:59:56.799Z,89.65
